createdAt,value
2022-10-23T00:01:27.067Z,100.00
2022-10-23T00:03:58.069Z,99.70
2022-10-23T00:06:27.726Z,99.42
2022-10-23T00:08:57.724Z,99.04
2022-10-23T00:11:28.871Z,99.62
2022-10-23T00:13:59.389Z,99.92
2022-10-23T00:16:28.240Z,99.69
2022-10-23T00:18:57.016Z,99.64
2022-10-23T00:21:26.444Z,99.06
2022-10-23T00:23:55.088Z,99.58
2022-10-23T00:26:25.151Z,99.67
2022-10-23T00:28:55.417Z,100.00
2022-10-23T00:31:25.276Z,100.00
2022-10-23T00:33:54.392Z,100.00
2022-10-23T00:36:23.320Z,100.00
2022-10-23T00:38:52.512Z,100.00
2022-10-23T00:41:22.700Z,100.00
2022-10-23T00:44:05.255Z,100.00
2022-10-23T00:46:34.036Z,100.00
2022-10-23T00:49:03.471Z,100.00
2022-10-23T00:51:37.367Z,100.00
2022-10-23T00:54:23.547Z,99.80
2022-10-23T00:56:54.891Z,99.91
2022-10-23T00:59:25.089Z,100.00
2022-10-23T01:01:53.772Z,99.98
2022-10-23T01:04:22.776Z,100.00
2022-10-23T01:06:55.047Z,100.00
2022-10-23T01:09:29.676Z,100.00
2022-10-23T01:12:02.416Z,100.00
2022-10-23T01:14:35.792Z,100.00
2022-10-23T01:17:07.639Z,100.00
2022-10-23T01:19:48.065Z,99.19
2022-10-23T01:22:29.428Z,100.00
2022-10-23T01:24:59.858Z,100.00
2022-10-23T01:27:32.110Z,100.00
2022-10-23T01:30:06.694Z,100.00
2022-10-23T01:32:39.294Z,99.90
2022-10-23T01:35:13.193Z,99.34
2022-10-23T01:37:44.399Z,99.79
2022-10-23T01:40:16.004Z,99.72
2022-10-23T01:42:50.395Z,98.75
2022-10-23T01:45:22.605Z,99.03
2022-10-23T01:47:52.035Z,98.97
2022-10-23T01:50:21.511Z,99.17
2022-10-23T01:52:50.204Z,99.62
2022-10-23T01:55:18.853Z,99.75
2022-10-23T01:57:49.753Z,98.88
2022-10-23T02:00:20.706Z,98.87
2022-10-23T02:02:50.228Z,98.78
2022-10-23T02:05:20.622Z,98.59
2022-10-23T02:07:49.472Z,98.64
2022-10-23T02:10:18.623Z,99.45
2022-10-23T02:12:52.650Z,99.66
2022-10-23T02:15:25.712Z,98.92
2022-10-23T02:18:02.839Z,99.43
2022-10-23T02:20:37.790Z,100.00
2022-10-23T02:23:17.133Z,98.95
2022-10-23T02:25:51.428Z,99.90
2022-10-23T02:28:26.284Z,100.00
2022-10-23T02:30:56.354Z,99.91
2022-10-23T02:33:27.355Z,99.96
2022-10-23T02:35:55.963Z,99.38
2022-10-23T02:38:31.156Z,98.70
2022-10-23T02:41:06.016Z,98.78
2022-10-23T02:43:39.650Z,98.67
2022-10-23T02:46:13.061Z,99.42
2022-10-23T02:48:45.036Z,99.57
2022-10-23T02:51:16.086Z,99.92
2022-10-23T02:53:49.081Z,99.79
2022-10-23T02:56:22.638Z,100.00
2022-10-23T02:59:01.265Z,99.32
2022-10-23T03:01:35.323Z,98.83
2022-10-23T03:04:06.314Z,98.77
2022-10-23T03:06:34.929Z,98.49
2022-10-23T03:09:05.884Z,99.32
2022-10-23T03:11:35.229Z,99.47
2022-10-23T03:14:05.172Z,99.55
2022-10-23T03:16:33.782Z,98.94
2022-10-23T03:19:02.381Z,99.71
2022-10-23T03:21:31.002Z,100.00
2022-10-23T03:23:59.712Z,99.11
2022-10-23T03:26:28.250Z,98.39
2022-10-23T03:28:56.815Z,99.47
2022-10-23T03:31:26.777Z,100.00
2022-10-23T03:33:55.346Z,99.73
2022-10-23T03:36:23.921Z,99.55
2022-10-23T03:38:53.298Z,100.00
2022-10-23T03:41:21.877Z,100.00
2022-10-23T03:43:50.428Z,100.00
2022-10-23T03:46:19.076Z,99.88
2022-10-23T03:48:48.983Z,100.00
2022-10-23T03:51:17.569Z,100.00
2022-10-23T03:53:46.173Z,99.33
2022-10-23T03:56:14.713Z,99.25
2022-10-23T03:58:43.279Z,100.00
2022-10-23T04:01:11.889Z,99.53
2022-10-23T04:03:40.528Z,100.00
2022-10-23T04:06:10.548Z,99.63
2022-10-23T04:08:39.107Z,100.00
2022-10-23T04:11:07.654Z,100.00
2022-10-23T04:13:36.245Z,99.00
2022-10-23T04:16:05.183Z,99.61
2022-10-23T04:18:33.745Z,98.96
2022-10-23T04:21:02.390Z,98.95
2022-10-23T04:23:32.296Z,100.00
2022-10-23T04:26:00.978Z,100.00
2022-10-23T04:28:29.812Z,100.00
2022-10-23T04:30:58.369Z,100.00
2022-10-23T04:33:27.094Z,99.78
2022-10-23T04:35:55.717Z,100.00
2022-10-23T04:38:24.281Z,100.00
2022-10-23T04:40:54.195Z,100.00
2022-10-23T04:43:22.783Z,100.00
2022-10-23T04:45:51.521Z,100.00
2022-10-23T04:48:20.078Z,100.00
2022-10-23T04:50:57.248Z,99.11
2022-10-23T04:53:26.130Z,99.33
2022-10-23T04:55:57.790Z,99.51
2022-10-23T04:58:27.577Z,99.64
2022-10-23T05:00:56.560Z,99.40
2022-10-23T05:03:26.734Z,99.90
2022-10-23T05:05:56.537Z,99.46
2022-10-23T05:08:25.322Z,98.82
2022-10-23T05:10:53.853Z,99.12
2022-10-23T05:13:23.840Z,98.87
2022-10-23T05:15:52.970Z,99.45
2022-10-23T05:18:24.671Z,99.73
2022-10-23T05:20:56.966Z,99.52
2022-10-23T05:23:26.430Z,98.98
2022-10-23T05:25:55.016Z,99.15
2022-10-23T05:28:24.930Z,99.86
2022-10-23T05:30:53.516Z,99.75
2022-10-23T05:33:22.090Z,99.97
2022-10-23T05:35:50.632Z,100.00
2022-10-23T05:38:19.305Z,99.41
2022-10-23T05:40:47.993Z,98.68
2022-10-23T05:43:16.599Z,99.89
2022-10-23T05:45:46.667Z,99.87
2022-10-23T05:48:22.875Z,99.60
2022-10-23T05:51:06.199Z,99.72
2022-10-23T05:53:36.261Z,99.85
2022-10-23T05:56:08.531Z,99.60
2022-10-23T05:58:37.165Z,99.30
2022-10-23T06:01:08.198Z,100.00
2022-10-23T06:03:37.505Z,100.00
2022-10-23T06:06:07.265Z,99.88
2022-10-23T06:08:36.335Z,100.00
2022-10-23T06:11:09.581Z,99.59
2022-10-23T06:13:38.392Z,99.67
2022-10-23T06:16:12.377Z,99.91
2022-10-23T06:18:41.278Z,99.50
2022-10-23T06:21:10.586Z,100.00
2022-10-23T06:23:40.582Z,100.00
2022-10-23T06:26:10.929Z,100.00
2022-10-23T06:28:39.864Z,100.00
2022-10-23T06:31:09.497Z,100.00
2022-10-23T06:33:39.761Z,100.00
2022-10-23T06:36:10.360Z,100.00
2022-10-23T06:38:40.360Z,100.00
2022-10-23T06:41:13.634Z,100.00
2022-10-23T06:43:42.241Z,100.00
2022-10-23T06:46:10.891Z,100.00
2022-10-23T06:48:42.363Z,100.00
2022-10-23T06:51:13.572Z,99.96
2022-10-23T06:53:42.224Z,99.43
2022-10-23T06:56:11.697Z,99.88
2022-10-23T06:58:41.013Z,99.95
2022-10-23T07:01:11.888Z,99.74
2022-10-23T07:03:41.884Z,98.99
2022-10-23T07:06:11.643Z,99.78
2022-10-23T07:08:40.345Z,99.99
2022-10-23T07:11:13.315Z,99.72
2022-10-23T07:13:42.585Z,99.91
2022-10-23T07:16:13.210Z,99.45
2022-10-23T07:18:43.370Z,99.55
2022-10-23T07:21:12.217Z,98.34
2022-10-23T07:23:41.075Z,98.47
2022-10-23T07:26:11.484Z,98.51
2022-10-23T07:28:41.330Z,97.89
2022-10-23T07:31:10.461Z,98.40
2022-10-23T07:33:39.078Z,97.89
2022-10-23T07:36:10.316Z,100.00
2022-10-23T07:38:38.927Z,98.14
2022-10-23T07:41:09.024Z,96.85
2022-10-23T07:43:40.283Z,96.81
2022-10-23T07:46:09.927Z,96.34
2022-10-23T07:48:38.909Z,96.03
2022-10-23T07:51:10.695Z,94.93
2022-10-23T07:53:40.004Z,94.69
2022-10-23T07:56:14.188Z,94.44
2022-10-23T07:58:42.793Z,94.29
2022-10-23T08:01:17.882Z,94.26
2022-10-23T08:03:46.870Z,94.49
2022-10-23T08:06:16.856Z,94.47
2022-10-23T08:11:24.818Z,95.02
2022-10-23T08:13:54.168Z,94.59
2022-10-23T08:16:23.290Z,95.13
2022-10-23T08:18:52.258Z,95.18
2022-10-23T08:21:22.282Z,95.44
2022-10-23T08:23:53.828Z,95.47
2022-10-23T08:26:22.501Z,94.43
2022-10-23T08:28:51.304Z,94.76
2022-10-23T08:31:21.652Z,94.60
2022-10-23T08:36:26.304Z,94.33
2022-10-23T08:38:56.442Z,94.33
2022-10-23T08:41:27.195Z,95.01
2022-10-23T08:43:59.303Z,94.28
2022-10-23T08:46:30.129Z,94.70
2022-10-23T08:49:09.201Z,94.05
2022-10-23T08:51:42.428Z,94.20
2022-10-23T08:54:15.235Z,93.64
2022-10-23T08:56:47.665Z,93.05
2022-10-23T08:59:20.557Z,92.86
2022-10-23T09:01:52.256Z,92.64
2022-10-23T09:04:21.120Z,92.63
2022-10-23T09:06:55.260Z,92.50
2022-10-23T09:09:49.937Z,91.69
2022-10-23T09:12:21.857Z,90.74
2022-10-23T09:15:14.235Z,90.55
2022-10-23T09:17:44.350Z,90.04
2022-10-23T09:20:19.289Z,90.38
2022-10-23T09:22:50.361Z,90.55
2022-10-23T09:25:21.082Z,89.70
2022-10-23T09:27:53.226Z,90.13
2022-10-23T09:30:29.941Z,88.75
2022-10-23T09:32:58.818Z,87.04
2022-10-23T09:35:31.483Z,85.77
2022-10-23T09:38:01.432Z,86.11
2022-10-23T09:40:34.405Z,85.40
2022-10-23T09:43:12.246Z,87.24
2022-10-23T09:45:42.466Z,86.38
2022-10-23T09:48:15.528Z,85.55
2022-10-23T09:50:52.616Z,82.63
2022-10-23T09:53:32.434Z,83.56
2022-10-23T09:56:03.572Z,82.22
2022-10-23T09:58:35.690Z,82.13
2022-10-23T10:01:04.786Z,82.05
2022-10-23T10:03:33.649Z,80.81
2022-10-23T10:06:03.449Z,79.37
2022-10-23T10:08:44.223Z,79.81
2022-10-23T10:11:17.451Z,79.19
2022-10-23T10:13:58.719Z,77.72
2022-10-23T10:16:34.199Z,79.40
2022-10-23T10:19:08.763Z,78.81
2022-10-23T10:21:41.214Z,77.38
2022-10-23T10:24:17.263Z,76.07
2022-10-23T10:26:51.461Z,74.88
2022-10-23T10:29:30.701Z,74.81
2022-10-23T10:32:07.449Z,74.87
2022-10-23T10:34:43.022Z,74.38
2022-10-23T10:37:20.340Z,74.46
2022-10-23T10:39:55.519Z,73.34
2022-10-23T10:42:37.893Z,73.64
2022-10-23T10:45:19.617Z,76.05
2022-10-23T10:47:59.439Z,74.62
2022-10-23T10:50:32.360Z,75.13
2022-10-23T10:53:08.473Z,75.67
2022-10-23T10:55:40.178Z,72.25
2022-10-23T10:58:15.648Z,72.32
2022-10-23T11:00:45.334Z,69.37
2022-10-23T11:03:26.265Z,67.99
2022-10-23T11:05:56.106Z,67.40
2022-10-23T11:08:36.855Z,66.93
2022-10-23T11:11:18.422Z,67.09
2022-10-23T11:13:47.099Z,68.38
2022-10-23T11:16:19.716Z,66.85
2022-10-23T11:18:58.037Z,67.26
2022-10-23T11:21:32.898Z,65.84
2022-10-23T11:24:16.284Z,66.81
2022-10-23T11:26:56.086Z,67.01
2022-10-23T11:29:36.213Z,66.17
2022-10-23T11:32:15.566Z,65.57
2022-10-23T11:34:59.100Z,66.19
2022-10-23T11:37:27.914Z,67.85
2022-10-23T11:40:03.874Z,67.55
2022-10-23T11:42:35.785Z,72.34
2022-10-23T11:45:04.838Z,68.94
2022-10-23T11:47:39.644Z,69.44
2022-10-23T11:50:17.925Z,68.50
2022-10-23T11:53:15.916Z,72.76
2022-10-23T11:55:58.819Z,70.87
2022-10-23T11:58:33.037Z,73.22
2022-10-23T12:01:05.214Z,71.25
2022-10-23T12:03:41.824Z,70.64
2022-10-23T12:06:24.024Z,68.38
2022-10-23T12:08:55.706Z,71.23
2022-10-23T12:11:27.969Z,67.58
2022-10-23T12:13:58.015Z,67.29
2022-10-23T12:16:36.099Z,67.02
2022-10-23T12:19:19.576Z,69.51
2022-10-23T12:21:48.319Z,67.70
2022-10-23T12:24:31.881Z,67.44
2022-10-23T12:27:07.459Z,70.57
2022-10-23T12:29:47.251Z,70.24
2022-10-23T12:32:31.593Z,71.70
2022-10-23T12:35:16.438Z,72.87
2022-10-23T12:38:04.152Z,75.63
2022-10-23T12:40:32.754Z,71.34
2022-10-23T12:43:02.223Z,68.34
2022-10-23T12:45:34.024Z,67.36
2022-10-23T12:48:02.652Z,68.46
2022-10-23T12:53:08.650Z,66.18
2022-10-23T12:55:48.616Z,70.18
2022-10-23T12:58:21.484Z,63.11
2022-10-23T13:00:55.649Z,61.84
2022-10-23T13:03:25.693Z,60.84
2022-10-23T13:05:56.040Z,64.47
2022-10-23T13:08:29.340Z,61.32
2022-10-23T13:10:58.666Z,61.18
2022-10-23T13:13:27.966Z,60.72
2022-10-23T13:15:58.302Z,62.07
2022-10-23T13:18:26.973Z,63.57
2022-10-23T13:20:59.704Z,64.95
2022-10-23T13:23:32.218Z,65.49
2022-10-23T13:26:01.901Z,65.19
2022-10-23T13:28:31.094Z,63.72
2022-10-23T13:31:14.531Z,63.59
2022-10-23T13:33:44.955Z,64.70
2022-10-23T13:36:24.567Z,66.22
2022-10-23T13:39:04.931Z,66.41
2022-10-23T13:41:38.177Z,69.26
2022-10-23T13:44:07.298Z,66.77
2022-10-23T13:46:37.293Z,70.56
2022-10-23T13:49:06.001Z,71.46
2022-10-23T13:51:42.482Z,71.04
2022-10-23T13:54:16.667Z,71.46
2022-10-23T13:56:45.410Z,74.77
2022-10-23T13:59:14.184Z,74.52
2022-10-23T14:01:45.481Z,76.18
2022-10-23T14:04:15.592Z,78.03
2022-10-23T14:06:44.607Z,78.62
2022-10-23T14:09:14.567Z,79.06
2022-10-23T14:11:43.576Z,79.02
2022-10-23T14:14:12.236Z,79.10
2022-10-23T14:16:40.884Z,81.51
2022-10-23T14:19:11.943Z,80.21
2022-10-23T14:21:40.665Z,81.45
2022-10-23T14:24:10.118Z,79.58
2022-10-23T14:26:38.831Z,79.17
2022-10-23T14:29:10.309Z,78.83
2022-10-23T14:31:42.698Z,80.38
2022-10-23T14:34:13.475Z,83.85
2022-10-23T14:36:50.164Z,84.67
2022-10-23T14:39:19.680Z,82.65
2022-10-23T14:41:48.357Z,83.34
2022-10-23T14:44:16.970Z,86.22
2022-10-23T14:46:45.619Z,85.50
2022-10-23T14:49:15.657Z,86.88
2022-10-23T14:51:44.327Z,87.19
2022-10-23T14:54:12.995Z,86.10
2022-10-23T14:56:41.641Z,86.68
2022-10-23T14:59:11.612Z,87.05
2022-10-23T15:01:45.179Z,88.62
2022-10-23T15:04:17.387Z,89.89
2022-10-23T15:06:47.091Z,89.35
2022-10-23T15:09:16.460Z,89.17
2022-10-23T15:11:45.067Z,89.19
2022-10-23T15:14:13.917Z,89.32
2022-10-23T15:16:42.580Z,86.85
2022-10-23T15:19:15.225Z,86.15
2022-10-23T15:21:48.935Z,84.29
2022-10-23T15:24:19.758Z,83.34
2022-10-23T15:26:49.844Z,83.54
2022-10-23T15:29:19.360Z,82.40
2022-10-23T15:31:50.486Z,82.56
2022-10-23T15:34:21.288Z,82.60
2022-10-23T15:36:51.518Z,82.96
2022-10-23T15:39:22.916Z,83.37
2022-10-23T15:41:52.536Z,84.03
2022-10-23T15:44:22.586Z,84.58
2022-10-23T15:46:51.606Z,84.65
2022-10-23T15:49:20.551Z,85.05
2022-10-23T15:51:49.443Z,86.71
2022-10-23T15:54:20.565Z,85.97
2022-10-23T15:56:50.981Z,86.29
2022-10-23T15:59:20.840Z,87.11
2022-10-23T16:01:50.029Z,87.72
2022-10-23T16:04:18.945Z,87.96
2022-10-23T16:06:47.671Z,89.03
2022-10-23T16:09:17.018Z,88.52
2022-10-23T16:11:46.989Z,88.38
2022-10-23T16:14:17.411Z,89.01
2022-10-23T16:16:46.083Z,88.42
2022-10-23T16:19:15.074Z,89.45
2022-10-23T16:21:43.903Z,89.48
2022-10-23T16:24:12.666Z,89.78
2022-10-23T16:26:41.939Z,89.92
2022-10-23T16:29:12.520Z,89.89
2022-10-23T16:31:41.174Z,89.63
2022-10-23T16:34:12.316Z,90.05
2022-10-23T16:36:41.777Z,89.78
2022-10-23T16:39:11.542Z,90.42
2022-10-23T16:41:40.294Z,91.15
2022-10-23T16:44:09.250Z,91.67
2022-10-23T16:46:40.124Z,91.43
2022-10-23T16:49:09.436Z,91.79
2022-10-23T16:51:38.093Z,91.89
2022-10-23T16:54:07.115Z,92.28
2022-10-23T16:56:36.125Z,92.23
2022-10-23T16:59:05.452Z,92.05
2022-10-23T17:01:34.837Z,92.64
2022-10-23T17:04:07.100Z,93.07
2022-10-23T17:06:36.290Z,93.68
2022-10-23T17:09:05.500Z,93.77
2022-10-23T17:11:35.806Z,94.52
2022-10-23T17:14:06.995Z,94.90
2022-10-23T17:16:37.396Z,95.12
2022-10-23T17:19:15.966Z,95.63
2022-10-23T17:21:49.702Z,95.36
2022-10-23T17:24:18.395Z,95.36
2022-10-23T17:26:47.209Z,95.50
2022-10-23T17:29:16.113Z,95.74
2022-10-23T17:31:46.261Z,95.50
2022-10-23T17:34:18.560Z,95.49
2022-10-23T17:36:49.247Z,95.65
2022-10-23T17:39:20.153Z,95.85
2022-10-23T17:41:49.539Z,96.69
2022-10-23T17:44:18.451Z,96.78
2022-10-23T17:46:47.258Z,97.46
2022-10-23T17:49:17.330Z,97.35
2022-10-23T17:51:45.980Z,97.68
2022-10-23T17:54:14.632Z,97.17
2022-10-23T17:56:43.259Z,97.58
2022-10-23T17:59:15.077Z,95.83
2022-10-23T18:01:46.447Z,95.80
2022-10-23T18:04:17.897Z,96.29
2022-10-23T18:06:48.335Z,96.20
2022-10-23T18:09:17.196Z,95.82
2022-10-23T18:11:48.464Z,95.93
2022-10-23T18:14:18.730Z,96.11
2022-10-23T18:16:47.947Z,96.00
2022-10-23T18:19:19.425Z,96.17
2022-10-23T18:21:48.870Z,96.59
2022-10-23T18:24:18.437Z,96.33
2022-10-23T18:26:48.051Z,96.77
2022-10-23T18:29:18.275Z,96.48
2022-10-23T18:31:48.052Z,96.65
2022-10-23T18:34:21.262Z,97.16
2022-10-23T18:36:52.079Z,97.14
2022-10-23T18:39:23.006Z,97.78
2022-10-23T18:41:53.637Z,97.81
2022-10-23T18:44:23.239Z,98.43
2022-10-23T18:46:52.474Z,98.40
2022-10-23T18:49:22.610Z,98.67
2022-10-23T18:51:51.518Z,98.95
2022-10-23T18:54:21.964Z,99.06
2022-10-23T18:56:50.797Z,98.96
2022-10-23T18:59:21.377Z,98.03
2022-10-23T19:01:50.868Z,96.98
2022-10-23T19:04:19.818Z,96.98
2022-10-23T19:06:50.998Z,97.26
2022-10-23T19:09:20.151Z,97.17
2022-10-23T19:11:48.979Z,97.29
2022-10-23T19:14:17.684Z,97.15
2022-10-23T19:16:53.516Z,97.72
2022-10-23T19:19:24.455Z,97.53
2022-10-23T19:21:54.924Z,97.67
2022-10-23T19:24:25.494Z,98.13
2022-10-23T19:26:55.430Z,98.12
2022-10-23T19:29:26.508Z,97.90
2022-10-23T19:31:55.282Z,97.62
2022-10-23T19:34:25.017Z,98.60
2022-10-23T19:36:56.900Z,98.18
2022-10-23T19:39:25.998Z,97.39
2022-10-23T19:41:55.273Z,97.40
2022-10-23T19:44:24.071Z,97.75
2022-10-23T19:46:52.830Z,97.89
2022-10-23T19:49:23.809Z,97.86
2022-10-23T19:51:52.572Z,96.57
2022-10-23T19:54:22.717Z,97.02
2022-10-23T19:56:51.392Z,96.07
2022-10-23T19:59:20.041Z,96.48
2022-10-23T20:01:49.424Z,97.73
2022-10-23T20:04:18.869Z,96.27
2022-10-23T20:06:48.320Z,95.96
2022-10-23T20:09:17.717Z,96.29
2022-10-23T20:11:49.239Z,95.99
2022-10-23T20:14:20.524Z,96.07
2022-10-23T20:16:53.533Z,95.56
2022-10-23T20:19:24.680Z,96.27
2022-10-23T20:21:55.968Z,96.15
2022-10-23T20:24:25.815Z,95.85
2022-10-23T20:26:57.257Z,95.88
2022-10-23T20:29:31.833Z,96.05
2022-10-23T20:32:00.450Z,95.20
2022-10-23T20:34:31.272Z,95.50
2022-10-23T20:37:00.845Z,81.90
2022-10-23T20:39:29.664Z,85.66
2022-10-23T20:42:00.266Z,84.32
2022-10-23T20:44:30.281Z,80.57
2022-10-23T20:47:01.627Z,78.41
2022-10-23T20:49:30.477Z,77.92
2022-10-23T20:51:59.134Z,76.61
2022-10-23T20:54:28.649Z,75.32
2022-10-23T20:56:58.827Z,73.08
2022-10-23T20:59:27.572Z,73.39
2022-10-23T21:01:57.089Z,70.96
2022-10-23T21:04:27.894Z,70.35
2022-10-23T21:07:09.874Z,70.45
2022-10-23T21:09:39.702Z,71.43
2022-10-23T21:12:10.253Z,69.27
2022-10-23T21:14:39.670Z,69.38
2022-10-23T21:17:10.661Z,69.89
2022-10-23T21:19:40.618Z,68.64
2022-10-23T21:22:09.352Z,68.47
2022-10-23T21:24:38.117Z,68.54
2022-10-23T21:27:07.167Z,68.72
2022-10-23T21:29:37.235Z,66.19
2022-10-23T21:32:06.225Z,66.66
2022-10-23T21:34:35.011Z,66.53
2022-10-23T21:37:12.873Z,65.41
2022-10-23T21:39:42.214Z,64.72
2022-10-23T21:42:11.195Z,64.65
2022-10-23T21:44:41.222Z,63.30
2022-10-23T21:47:09.898Z,61.81
2022-10-23T21:49:38.587Z,62.41
2022-10-23T21:52:07.254Z,62.43
2022-10-23T21:54:36.455Z,61.39
2022-10-23T21:57:05.417Z,60.77
2022-10-23T21:59:35.931Z,60.76
2022-10-23T22:02:06.403Z,60.40
2022-10-23T22:04:35.145Z,60.68
2022-10-23T22:07:03.814Z,60.96
2022-10-23T22:09:33.613Z,60.53
2022-10-23T22:12:02.641Z,60.62
2022-10-23T22:14:31.286Z,59.29
2022-10-23T22:17:00.117Z,59.72
2022-10-23T22:19:30.216Z,60.48
2022-10-23T22:21:59.029Z,60.46
2022-10-23T22:24:27.978Z,60.03
2022-10-23T22:26:57.285Z,60.90
2022-10-23T22:29:27.840Z,60.20
2022-10-23T22:31:56.774Z,59.83
2022-10-23T22:34:48.451Z,60.26
2022-10-23T22:37:17.279Z,60.80
2022-10-23T22:39:45.941Z,60.76
2022-10-23T22:42:14.545Z,61.37
2022-10-23T22:44:43.206Z,59.96
2022-10-23T22:47:11.826Z,59.76
2022-10-23T22:49:40.736Z,60.67
2022-10-23T22:52:09.376Z,61.19
2022-10-23T22:54:39.461Z,61.46
2022-10-23T22:57:08.054Z,60.24
2022-10-23T22:59:36.801Z,60.91
2022-10-23T23:02:05.419Z,61.97
2022-10-23T23:04:38.631Z,62.07
2022-10-23T23:07:08.703Z,61.52
2022-10-23T23:09:40.060Z,62.09
2022-10-23T23:12:10.069Z,62.46
2022-10-23T23:14:39.042Z,62.59
2022-10-23T23:17:08.385Z,63.11
2022-10-23T23:19:37.506Z,65.13
2022-10-23T23:22:06.328Z,65.87
2022-10-23T23:24:35.015Z,66.48
2022-10-23T23:27:05.168Z,69.24
2022-10-23T23:29:33.805Z,70.00
2022-10-23T23:32:02.474Z,70.39
2022-10-23T23:34:31.254Z,70.01
2022-10-23T23:37:00.190Z,69.50
2022-10-23T23:39:29.566Z,69.42
2022-10-23T23:41:58.239Z,69.17
2022-10-23T23:44:28.269Z,69.13
2022-10-23T23:46:57.066Z,68.95
2022-10-23T23:49:25.728Z,69.36
2022-10-23T23:51:54.342Z,68.65
2022-10-23T23:54:23.106Z,69.13
2022-10-23T23:56:52.157Z,70.53
2022-10-23T23:59:20.774Z,70.30
